createdAt,value
2017-02-22T00:06:46.817Z,18
2017-02-22T00:16:47.118Z,16
2017-02-22T00:26:46.869Z,16
2017-02-22T00:36:46.823Z,18
2017-02-22T00:46:46.806Z,17
2017-02-22T00:56:46.880Z,18
2017-02-22T01:06:46.776Z,16
2017-02-22T01:16:46.762Z,17
2017-02-22T01:26:46.821Z,20
2017-02-22T01:36:46.797Z,18
2017-02-22T01:46:46.922Z,18
2017-02-22T01:56:46.826Z,17
2017-02-22T02:06:46.867Z,18
2017-02-22T02:16:46.789Z,16
2017-02-22T02:26:47.215Z,17
2017-02-22T02:36:46.793Z,14
2017-02-22T02:46:46.781Z,13
2017-02-22T02:56:46.829Z,13
2017-02-22T03:06:46.816Z,13
2017-02-22T03:16:46.740Z,10
2017-02-22T03:26:46.809Z,12
2017-02-22T03:36:46.787Z,11
2017-02-22T03:46:46.853Z,9
2017-02-22T03:56:46.796Z,9
2017-02-22T04:06:46.741Z,8
2017-02-22T04:16:46.852Z,8
2017-02-22T04:26:46.837Z,8
2017-02-22T04:36:46.832Z,8
2017-02-22T04:46:46.837Z,7
2017-02-22T04:56:46.758Z,6
2017-02-22T05:06:46.880Z,5
2017-02-22T05:16:46.826Z,5
2017-02-22T05:26:46.903Z,6
2017-02-22T05:36:46.843Z,6
2017-02-22T05:46:46.776Z,6
2017-02-22T05:56:46.720Z,5
2017-02-22T06:06:46.736Z,5
2017-02-22T06:16:46.691Z,5
2017-02-22T06:26:46.718Z,5
2017-02-22T06:36:46.694Z,5
2017-02-22T06:46:46.727Z,4
2017-02-22T06:56:46.713Z,3
2017-02-22T07:06:46.786Z,4
2017-02-22T07:16:46.703Z,5
2017-02-22T07:26:46.731Z,5
2017-02-22T07:36:46.718Z,5
2017-02-22T07:46:46.741Z,5
2017-02-22T07:56:46.702Z,4
2017-02-22T08:06:46.720Z,5
2017-02-22T08:16:46.715Z,4
2017-02-22T08:26:46.767Z,3
2017-02-22T08:36:46.715Z,4
2017-02-22T08:46:46.697Z,4
2017-02-22T08:56:46.725Z,4
2017-02-22T09:06:46.705Z,4
2017-02-22T09:16:46.733Z,5
2017-02-22T09:26:46.680Z,5
2017-02-22T09:36:46.731Z,5
2017-02-22T09:46:46.714Z,5
2017-02-22T09:56:46.699Z,5
2017-02-22T10:06:46.770Z,5
2017-02-22T10:16:46.786Z,6
2017-02-22T10:26:46.731Z,5
2017-02-22T10:36:46.735Z,5
2017-02-22T10:46:46.685Z,4
2017-02-22T10:56:46.798Z,4
2017-02-22T11:06:46.758Z,4
2017-02-22T11:16:46.754Z,6
2017-02-22T11:26:46.731Z,6
2017-02-22T11:36:46.727Z,6
2017-02-22T11:46:46.698Z,6
2017-02-22T11:56:46.770Z,8
2017-02-22T12:06:46.679Z,8
2017-02-22T12:16:46.666Z,8
2017-02-22T12:26:46.706Z,9
2017-02-22T12:36:46.740Z,11
2017-02-22T12:46:46.696Z,8
2017-02-22T12:56:46.748Z,8
2017-02-22T13:06:46.708Z,10
2017-02-22T13:16:46.703Z,8
2017-02-22T13:26:46.694Z,9
2017-02-22T13:36:46.746Z,9
2017-02-22T13:46:46.658Z,10
2017-02-22T13:56:46.696Z,8
2017-02-22T14:06:46.662Z,9
2017-02-22T14:16:46.712Z,9
2017-02-22T14:26:46.752Z,8
2017-02-22T14:36:46.703Z,1
2017-02-22T14:46:46.759Z,1
2017-02-22T14:56:46.661Z,1
2017-02-22T15:06:46.790Z,1
2017-02-22T15:16:47.045Z,2
2017-02-22T15:26:46.769Z,2
2017-02-22T15:36:46.740Z,2
2017-02-22T15:46:46.811Z,1
2017-02-22T15:56:46.731Z,2
2017-02-22T16:06:46.807Z,2
2017-02-22T16:16:46.796Z,2
2017-02-22T16:26:46.674Z,3
2017-02-22T16:36:46.737Z,1
2017-02-22T16:46:46.723Z,2
2017-02-22T16:56:46.686Z,3
2017-02-22T17:06:46.618Z,3
2017-02-22T17:16:46.682Z,2
2017-02-22T17:26:46.676Z,3
2017-02-22T17:36:46.695Z,2
2017-02-22T17:46:46.863Z,3
2017-02-22T17:56:46.762Z,4
2017-02-22T18:06:46.701Z,4
2017-02-22T18:16:58.785Z,5
2017-02-22T18:27:11.883Z,6
2017-02-22T18:36:49.658Z,9
2017-02-22T18:46:50.965Z,11
2017-02-22T18:57:10.934Z,12
2017-02-22T19:07:18.374Z,12
2017-02-22T19:16:57.732Z,10
2017-02-22T19:27:03.381Z,9
2017-02-22T19:37:06.725Z,11
2017-02-22T19:47:10.476Z,8
2017-02-22T19:57:10.721Z,8
2017-02-22T20:07:01.024Z,7
2017-02-22T20:16:58.838Z,10
2017-02-22T20:26:55.150Z,9
2017-02-22T20:46:59.492Z,8
2017-02-22T21:07:09.086Z,7
2017-02-22T21:27:04.765Z,7
2017-02-22T21:36:47.269Z,5
2017-02-22T21:46:46.753Z,7
2017-02-22T21:57:36.938Z,6
2017-02-22T22:07:20.797Z,6
2017-02-22T22:16:55.950Z,6
2017-02-22T22:26:52.859Z,5
2017-02-22T22:36:46.592Z,5
2017-02-22T22:46:46.695Z,5
2017-02-22T22:56:47.791Z,5
2017-02-22T23:06:46.743Z,5
2017-02-22T23:16:46.828Z,5
2017-02-22T23:26:46.727Z,5
2017-02-22T23:36:46.632Z,6
2017-02-22T23:46:46.647Z,6
2017-02-22T23:56:46.722Z,6
